createdAt,value
2018-11-02T00:02:06.026Z,2.70
2018-11-02T00:04:34.035Z,4.93
2018-11-02T00:07:02.101Z,4.57
2018-11-02T00:09:31.147Z,2.67
2018-11-02T00:11:59.169Z,3.30
2018-11-02T00:14:27.219Z,3.00
2018-11-02T00:16:55.258Z,2.87
2018-11-02T00:19:28.791Z,2.90
2018-11-02T00:21:56.854Z,3.53
2018-11-02T00:24:24.919Z,3.97
2018-11-02T00:26:52.946Z,2.60
2018-11-02T00:29:20.981Z,3.10
2018-11-02T00:31:49.140Z,3.13
2018-11-02T00:34:17.138Z,4.30
2018-11-02T00:36:45.306Z,2.87
2018-11-02T00:39:14.578Z,3.40
2018-11-02T00:41:43.626Z,3.20
2018-11-02T00:44:11.771Z,2.50
2018-11-02T00:46:39.847Z,2.93
2018-11-02T00:49:07.907Z,3.20
2018-11-02T00:51:36.755Z,2.87
2018-11-02T00:54:05.374Z,2.80
2018-11-02T00:56:33.871Z,3.47
2018-11-02T00:59:01.907Z,2.70
2018-11-02T01:01:29.935Z,2.43
2018-11-02T01:03:57.970Z,3.60
2018-11-02T01:06:27.003Z,2.83
2018-11-02T01:08:55.058Z,4.20
2018-11-02T01:11:23.078Z,5.20
2018-11-02T01:13:51.102Z,3.80
2018-11-02T01:16:19.138Z,2.60
2018-11-02T01:18:47.172Z,3.83
2018-11-02T01:21:15.346Z,2.70
2018-11-02T01:23:43.385Z,2.80
2018-11-02T01:26:11.842Z,3.53
2018-11-02T01:28:46.981Z,4.57
2018-11-02T01:31:16.417Z,2.73
2018-11-02T01:33:45.078Z,3.30
2018-11-02T01:36:13.142Z,2.60
2018-11-02T01:38:41.167Z,2.43
2018-11-02T01:41:09.180Z,4.13
2018-11-02T01:43:37.174Z,5.03
2018-11-02T01:46:05.255Z,2.60
2018-11-02T01:48:33.267Z,3.90
2018-11-02T01:51:01.299Z,2.80
2018-11-02T01:53:29.322Z,2.67
2018-11-02T01:55:57.342Z,2.53
2018-11-02T01:58:25.342Z,2.33
2018-11-02T02:00:53.366Z,2.40
2018-11-02T02:03:21.353Z,2.13
2018-11-02T02:05:49.390Z,2.67
2018-11-02T02:08:17.397Z,3.23
2018-11-02T02:10:45.401Z,3.23
2018-11-02T02:13:13.450Z,3.00
2018-11-02T02:15:41.414Z,3.60
2018-11-02T02:18:09.421Z,2.73
2018-11-02T02:20:37.445Z,2.50
2018-11-02T02:23:05.545Z,3.40
2018-11-02T02:25:33.577Z,3.07
2018-11-02T02:28:01.586Z,2.83
2018-11-02T02:30:29.616Z,2.73
2018-11-02T02:32:57.613Z,3.63
2018-11-02T02:35:25.630Z,3.17
2018-11-02T02:37:54.702Z,2.83
2018-11-02T02:40:22.699Z,3.07
2018-11-02T02:42:50.727Z,3.73
2018-11-02T02:45:18.739Z,2.80
2018-11-02T02:47:46.734Z,3.17
2018-11-02T02:50:14.905Z,3.10
2018-11-02T02:52:43.626Z,2.43
2018-11-02T02:55:11.646Z,2.27
2018-11-02T02:57:39.637Z,3.53
2018-11-02T03:00:08.766Z,4.00
2018-11-02T03:02:36.797Z,2.60
2018-11-02T03:05:05.058Z,3.50
2018-11-02T03:07:33.061Z,4.17
2018-11-02T03:10:01.094Z,3.40
2018-11-02T03:12:29.093Z,2.77
2018-11-02T03:14:57.106Z,2.93
2018-11-02T03:17:25.112Z,2.70
2018-11-02T03:19:54.147Z,3.90
2018-11-02T03:22:22.174Z,2.10
2018-11-02T03:24:50.189Z,2.70
2018-11-02T03:27:18.185Z,3.23
2018-11-02T03:29:46.230Z,2.67
2018-11-02T03:32:14.238Z,2.40
2018-11-02T03:34:42.247Z,2.17
2018-11-02T03:37:11.263Z,2.47
2018-11-02T03:39:39.285Z,3.00
2018-11-02T03:42:07.478Z,2.37
2018-11-02T03:44:35.495Z,2.23
2018-11-02T03:47:03.506Z,2.53
2018-11-02T03:49:31.522Z,2.73
2018-11-02T03:51:59.544Z,2.83
2018-11-02T03:54:28.557Z,3.03
2018-11-02T03:56:56.598Z,2.27
2018-11-02T03:59:24.587Z,2.57
2018-11-02T04:01:52.593Z,2.77
2018-11-02T04:04:20.602Z,2.73
2018-11-02T04:06:48.654Z,2.70
2018-11-02T04:09:16.688Z,2.30
2018-11-02T04:11:44.662Z,2.70
2018-11-02T04:14:12.670Z,2.50
2018-11-02T04:16:40.668Z,2.60
2018-11-02T04:19:08.649Z,4.00
2018-11-02T04:21:41.937Z,2.60
2018-11-02T04:24:09.969Z,4.30
2018-11-02T04:26:38.120Z,2.40
2018-11-02T04:29:06.108Z,2.40
2018-11-02T04:31:34.113Z,2.70
2018-11-02T04:34:02.138Z,2.77
2018-11-02T04:36:31.165Z,2.80
2018-11-02T04:38:59.250Z,2.90
2018-11-02T04:41:27.345Z,2.57
2018-11-02T04:43:56.297Z,2.30
2018-11-02T04:46:24.325Z,2.40
2018-11-02T04:48:52.326Z,3.20
2018-11-02T04:51:20.365Z,3.03
2018-11-02T04:53:48.373Z,2.53
2018-11-02T04:56:16.393Z,2.50
2018-11-02T04:58:44.390Z,2.20
2018-11-02T05:01:12.409Z,3.90
2018-11-02T05:03:40.376Z,2.23
2018-11-02T05:06:08.425Z,3.40
2018-11-02T05:08:36.445Z,3.37
2018-11-02T05:11:04.757Z,2.93
2018-11-02T05:13:32.762Z,2.87
2018-11-02T05:16:00.749Z,2.17
2018-11-02T05:18:28.891Z,3.13
2018-11-02T05:20:56.889Z,2.83
2018-11-02T05:23:24.908Z,2.53
2018-11-02T05:25:52.938Z,2.83
2018-11-02T05:28:20.957Z,2.50
2018-11-02T05:30:48.992Z,4.20
2018-11-02T05:33:16.974Z,2.80
2018-11-02T05:35:44.981Z,2.53
2018-11-02T05:38:14.037Z,2.47
2018-11-02T05:40:42.018Z,2.73
2018-11-02T05:43:10.033Z,2.40
2018-11-02T05:45:38.090Z,2.27
2018-11-02T05:48:06.126Z,2.50
2018-11-02T05:50:34.115Z,2.43
2018-11-02T05:53:02.109Z,2.30
2018-11-02T05:55:30.109Z,3.30
2018-11-02T05:57:58.140Z,2.10
2018-11-02T06:00:26.136Z,2.93
2018-11-02T06:02:54.151Z,3.07
2018-11-02T06:05:22.157Z,4.33
2018-11-02T06:07:50.211Z,2.50
2018-11-02T06:10:18.177Z,3.70
2018-11-02T06:12:46.197Z,2.70
2018-11-02T06:15:15.210Z,3.60
2018-11-02T06:17:43.233Z,2.73
2018-11-02T06:20:11.513Z,2.60
2018-11-02T06:22:40.466Z,2.83
2018-11-02T06:25:08.453Z,2.57
2018-11-02T06:27:36.677Z,2.87
2018-11-02T06:30:05.181Z,3.30
2018-11-02T06:32:33.233Z,4.60
2018-11-02T06:35:02.226Z,5.10
2018-11-02T06:37:30.285Z,3.03
2018-11-02T06:39:58.290Z,3.10
2018-11-02T06:42:26.296Z,3.30
2018-11-02T06:44:54.380Z,3.40
2018-11-02T06:47:23.320Z,5.30
2018-11-02T06:49:51.330Z,2.87
2018-11-02T06:52:19.341Z,3.10
2018-11-02T06:54:47.373Z,2.40
2018-11-02T06:57:16.481Z,3.10
2018-11-02T06:59:44.674Z,2.50
2018-11-02T07:02:12.485Z,2.60
2018-11-02T07:04:40.494Z,3.23
2018-11-02T07:07:08.504Z,3.27
2018-11-02T07:09:36.513Z,2.43
2018-11-02T07:12:04.695Z,2.70
2018-11-02T07:14:32.705Z,1.90
2018-11-02T07:17:00.697Z,2.53
2018-11-02T07:19:28.712Z,3.80
2018-11-02T07:21:56.737Z,3.37
2018-11-02T07:24:24.744Z,3.13
2018-11-02T07:26:52.757Z,3.00
2018-11-02T07:29:20.786Z,4.33
2018-11-02T07:31:49.809Z,2.50
2018-11-02T07:34:17.875Z,3.50
2018-11-02T07:36:45.825Z,2.53
2018-11-02T07:39:13.868Z,4.30
2018-11-02T07:41:41.882Z,3.47
2018-11-02T07:44:09.902Z,2.60
2018-11-02T07:46:38.285Z,2.30
2018-11-02T07:49:06.280Z,2.33
2018-11-02T07:51:34.314Z,2.93
2018-11-02T07:54:02.352Z,2.37
2018-11-02T07:56:30.369Z,2.43
2018-11-02T07:58:58.393Z,3.30
2018-11-02T08:01:26.409Z,2.83
2018-11-02T08:03:54.435Z,3.30
2018-11-02T08:06:22.429Z,4.27
2018-11-02T08:08:50.459Z,2.73
2018-11-02T08:11:18.490Z,2.50
2018-11-02T08:13:46.465Z,2.87
2018-11-02T08:16:14.466Z,2.97
2018-11-02T08:18:42.492Z,2.67
2018-11-02T08:21:11.506Z,2.60
2018-11-02T08:26:13.902Z,2.47
2018-11-02T08:28:41.914Z,2.57
2018-11-02T08:31:09.912Z,2.80
2018-11-02T08:33:37.931Z,2.80
2018-11-02T08:36:05.954Z,2.73
2018-11-02T08:38:33.981Z,2.87
2018-11-02T08:41:01.994Z,3.40
2018-11-02T08:43:30.033Z,2.10
2018-11-02T08:45:58.109Z,2.53
2018-11-02T08:48:26.140Z,2.37
2018-11-02T08:50:54.145Z,2.10
2018-11-02T08:53:22.124Z,2.90
2018-11-02T08:55:50.207Z,2.60
2018-11-02T08:58:18.314Z,2.87
2018-11-02T09:00:46.221Z,3.40
2018-11-02T09:03:14.242Z,3.33
2018-11-02T09:05:42.290Z,3.00
2018-11-02T09:08:10.292Z,3.13
2018-11-02T09:10:38.314Z,3.30
2018-11-02T09:13:06.352Z,2.20
2018-11-02T09:15:34.393Z,2.97
2018-11-02T09:18:02.459Z,2.30
2018-11-02T09:20:30.498Z,2.87
2018-11-02T09:22:58.504Z,2.60
2018-11-02T09:25:26.475Z,3.10
2018-11-02T09:27:54.616Z,2.93
2018-11-02T09:30:22.512Z,3.47
2018-11-02T09:32:50.526Z,3.80
2018-11-02T09:35:18.531Z,2.80
2018-11-02T09:37:46.545Z,2.30
2018-11-02T09:40:14.581Z,2.97
2018-11-02T09:42:42.685Z,2.83
2018-11-02T09:45:12.398Z,2.77
2018-11-02T09:47:40.547Z,2.70
2018-11-02T09:50:09.336Z,3.10
2018-11-02T09:52:38.005Z,3.40
2018-11-02T09:55:06.486Z,2.57
2018-11-02T09:57:34.538Z,3.80
2018-11-02T10:00:02.631Z,3.67
2018-11-02T10:02:30.666Z,2.90
2018-11-02T10:04:58.707Z,2.23
2018-11-02T10:07:26.761Z,2.20
2018-11-02T10:09:54.764Z,2.77
2018-11-02T10:12:22.796Z,2.70
2018-11-02T10:14:50.784Z,2.13
2018-11-02T10:17:18.804Z,2.40
2018-11-02T10:19:46.801Z,2.63
2018-11-02T10:22:14.862Z,2.13
2018-11-02T10:24:42.899Z,2.47
2018-11-02T10:27:10.978Z,2.20
2018-11-02T10:29:39.003Z,2.37
2018-11-02T10:32:07.020Z,2.63
2018-11-02T10:34:35.017Z,2.87
2018-11-02T10:37:03.041Z,2.70
2018-11-02T10:39:31.080Z,2.27
2018-11-02T10:42:00.113Z,4.00
2018-11-02T10:44:30.744Z,2.50
2018-11-02T10:46:58.877Z,2.90
2018-11-02T10:49:29.317Z,2.63
2018-11-02T10:51:57.428Z,2.43
2018-11-02T10:54:27.040Z,3.77
2018-11-02T10:56:56.487Z,2.97
2018-11-02T10:59:25.039Z,3.80
2018-11-02T11:02:05.522Z,2.93
2018-11-02T11:04:40.286Z,3.43
2018-11-02T11:07:08.633Z,4.00
2018-11-02T11:09:37.050Z,2.60
2018-11-02T11:12:05.639Z,2.50
2018-11-02T11:14:33.609Z,2.57
2018-11-02T11:17:02.369Z,2.73
2018-11-02T11:19:31.101Z,2.00
2018-11-02T11:22:02.452Z,2.73
2018-11-02T11:24:30.549Z,4.70
2018-11-02T11:26:58.585Z,2.30
2018-11-02T11:29:26.771Z,3.00
2018-11-02T11:31:54.802Z,3.43
2018-11-02T11:34:22.972Z,2.37
2018-11-02T11:36:51.115Z,2.60
2018-11-02T11:39:19.158Z,2.90
2018-11-02T11:41:48.169Z,2.67
2018-11-02T11:44:16.796Z,2.80
2018-11-02T11:46:45.150Z,8.40
2018-11-02T11:49:13.301Z,3.03
2018-11-02T11:51:41.869Z,10.47
2018-11-02T11:54:10.571Z,2.60
2018-11-02T11:56:39.013Z,2.10
2018-11-02T11:59:07.196Z,2.30
2018-11-02T12:01:35.241Z,2.93
2018-11-02T12:04:04.404Z,2.27
2018-11-02T12:06:32.479Z,3.60
2018-11-02T12:09:00.499Z,2.63
2018-11-02T12:11:28.507Z,2.43
2018-11-02T12:13:56.531Z,3.43
2018-11-02T12:16:24.599Z,3.47
2018-11-02T12:18:52.675Z,1.77
2018-11-02T12:21:20.742Z,3.10
2018-11-02T12:23:49.925Z,2.23
2018-11-02T12:26:17.995Z,2.40
2018-11-02T12:28:58.422Z,2.57
2018-11-02T12:31:27.383Z,3.30
2018-11-02T12:33:55.389Z,2.00
2018-11-02T12:36:23.421Z,2.40
2018-11-02T12:38:51.413Z,2.10
2018-11-02T12:41:19.502Z,1.73
2018-11-02T12:43:47.552Z,2.50
2018-11-02T12:46:17.830Z,2.70
2018-11-02T12:48:46.544Z,2.20
2018-11-02T12:51:14.505Z,2.20
2018-11-02T12:53:42.537Z,2.80
2018-11-02T12:56:10.549Z,2.03
2018-11-02T12:58:38.610Z,3.60
2018-11-02T13:01:06.650Z,2.10
2018-11-02T13:03:34.652Z,3.77
2018-11-02T13:06:02.687Z,2.30
2018-11-02T13:08:30.753Z,5.70
2018-11-02T13:10:58.747Z,2.27
2018-11-02T13:13:26.731Z,4.63
2018-11-02T13:15:54.822Z,1.73
2018-11-02T13:18:22.749Z,2.40
2018-11-02T13:20:50.874Z,28.83
2018-11-02T13:23:18.883Z,35.90
2018-11-02T13:25:47.055Z,32.30
2018-11-02T13:28:15.226Z,98.90
2018-11-02T13:30:43.269Z,188.17
2018-11-02T13:33:11.228Z,138.83
2018-11-02T13:35:39.234Z,120.43
2018-11-02T13:38:07.271Z,130.57
2018-11-02T13:40:35.291Z,118.27
2018-11-02T13:43:04.845Z,131.60
2018-11-02T13:45:34.055Z,130.47
2018-11-02T13:48:08.763Z,133.57
2018-11-02T13:50:37.031Z,119.53
2018-11-02T13:53:05.893Z,138.63
2018-11-02T13:55:34.401Z,110.17
2018-11-02T13:58:03.082Z,103.50
2018-11-02T14:00:31.701Z,110.83
2018-11-02T14:03:00.427Z,93.60
2018-11-02T14:05:28.744Z,101.47
2018-11-02T14:07:56.845Z,125.10
2018-11-02T14:10:25.566Z,101.90
2018-11-02T14:12:54.270Z,82.60
2018-11-02T14:15:22.849Z,81.60
2018-11-02T14:17:51.304Z,94.30
2018-11-02T14:20:19.690Z,78.13
2018-11-02T14:22:47.912Z,91.33
2018-11-02T14:25:16.919Z,74.93
2018-11-02T14:27:45.690Z,72.40
2018-11-02T14:30:16.040Z,72.20
2018-11-02T14:32:44.402Z,71.03
2018-11-02T14:37:46.862Z,67.00
2018-11-02T14:40:14.882Z,68.57
2018-11-02T14:42:43.027Z,65.27
2018-11-02T14:45:12.510Z,59.17
2018-11-02T14:47:40.536Z,60.40
2018-11-02T14:50:08.858Z,62.27
2018-11-02T14:52:36.979Z,51.27
2018-11-02T14:55:05.070Z,50.57
2018-11-02T14:57:33.102Z,50.87
2018-11-02T15:00:01.150Z,50.40
2018-11-02T15:02:29.195Z,50.83
2018-11-02T15:04:57.198Z,46.20
2018-11-02T15:07:25.234Z,52.13
2018-11-02T15:09:53.274Z,47.40
2018-11-02T15:12:22.281Z,45.20
2018-11-02T15:14:50.300Z,48.43
2018-11-02T15:17:18.313Z,37.17
2018-11-02T15:19:46.371Z,44.97
2018-11-02T15:22:14.369Z,49.93
2018-11-02T15:24:42.370Z,45.43
2018-11-02T15:27:10.398Z,32.67
2018-11-02T15:29:38.434Z,47.23
2018-11-02T15:32:06.456Z,38.17
2018-11-02T15:34:35.525Z,41.97
2018-11-02T15:37:03.493Z,36.63
2018-11-02T15:39:31.496Z,38.80
2018-11-02T15:41:59.526Z,27.57
2018-11-02T15:44:27.561Z,36.30
2018-11-02T15:46:55.582Z,34.17
2018-11-02T15:49:23.559Z,28.73
2018-11-02T15:51:51.568Z,31.03
2018-11-02T15:54:19.581Z,23.70
2018-11-02T15:56:47.590Z,24.20
2018-11-02T15:59:16.018Z,27.80
2018-11-02T16:01:44.077Z,27.47
2018-11-02T16:04:12.073Z,31.70
2018-11-02T16:06:40.127Z,30.83
2018-11-02T16:09:13.469Z,22.17
2018-11-02T16:11:41.670Z,25.40
2018-11-02T16:14:09.661Z,23.13
2018-11-02T16:16:37.661Z,26.70
2018-11-02T16:19:05.663Z,24.70
2018-11-02T16:21:33.861Z,21.20
2018-11-02T16:24:01.845Z,22.53
2018-11-02T16:26:29.848Z,16.93
2018-11-02T16:28:57.836Z,22.50
2018-11-02T16:31:25.841Z,21.10
2018-11-02T16:33:53.838Z,26.73
2018-11-02T16:36:21.846Z,21.73
2018-11-02T16:38:49.841Z,15.63
2018-11-02T16:41:17.930Z,20.47
2018-11-02T16:43:46.008Z,18.13
2018-11-02T16:46:13.983Z,19.47
2018-11-02T16:48:41.976Z,16.00
2018-11-02T16:51:09.982Z,18.27
2018-11-02T16:53:38.006Z,14.33
2018-11-02T16:56:06.018Z,17.17
2018-11-02T16:58:34.089Z,17.03
2018-11-02T17:01:02.109Z,16.03
2018-11-02T17:03:30.122Z,16.50
2018-11-02T17:05:58.283Z,13.67
2018-11-02T17:08:26.185Z,20.40
2018-11-02T17:10:54.189Z,22.87
2018-11-02T17:13:22.232Z,17.40
2018-11-02T17:15:50.263Z,14.17
2018-11-02T17:18:18.335Z,11.53
2018-11-02T17:20:46.277Z,14.80
2018-11-02T17:23:14.312Z,20.97
2018-11-02T17:25:43.323Z,9.87
2018-11-02T17:28:11.362Z,13.57
2018-11-02T17:30:39.374Z,17.53
2018-11-02T17:33:07.383Z,10.13
2018-11-02T17:35:35.413Z,13.57
2018-11-02T17:38:03.427Z,17.23
2018-11-02T17:40:31.412Z,9.93
2018-11-02T17:43:00.466Z,15.63
2018-11-02T17:45:28.468Z,18.00
2018-11-02T17:47:56.485Z,7.33
2018-11-02T17:50:24.506Z,9.20
2018-11-02T17:52:52.529Z,9.73
2018-11-02T17:55:20.555Z,15.10
2018-11-02T17:57:48.697Z,12.10
2018-11-02T18:00:16.702Z,8.47
2018-11-02T18:02:45.750Z,7.20
2018-11-02T18:05:13.879Z,9.87
2018-11-02T18:07:41.986Z,14.73
2018-11-02T18:10:11.243Z,12.50
2018-11-02T18:12:39.576Z,7.20
2018-11-02T18:15:08.303Z,9.70
2018-11-02T18:17:36.509Z,8.53
2018-11-02T18:20:05.918Z,12.83
2018-11-02T18:22:33.959Z,5.57
2018-11-02T18:25:01.962Z,9.50
2018-11-02T18:27:30.061Z,8.53
2018-11-02T18:29:58.146Z,10.73
2018-11-02T18:32:26.517Z,12.20
2018-11-02T18:34:54.749Z,8.13
2018-11-02T18:39:57.074Z,8.93
2018-11-02T18:42:25.267Z,8.00
2018-11-02T18:44:53.341Z,8.40
2018-11-02T18:47:21.690Z,8.63
2018-11-02T18:49:49.704Z,8.27
2018-11-02T18:52:17.716Z,9.03
2018-11-02T18:54:46.321Z,5.33
2018-11-02T18:57:14.442Z,9.00
2018-11-02T18:59:42.716Z,12.53
2018-11-02T19:02:10.828Z,10.43
2018-11-02T19:04:38.860Z,11.97
2018-11-02T19:07:06.926Z,7.20
2018-11-02T19:09:34.954Z,10.20
2018-11-02T19:12:02.938Z,6.43
2018-11-02T19:14:32.097Z,8.87
2018-11-02T19:17:01.100Z,6.87
2018-11-02T19:19:30.151Z,8.20
2018-11-02T19:21:58.204Z,9.50
2018-11-02T19:24:26.213Z,10.57
2018-11-02T19:26:54.339Z,14.30
2018-11-02T19:29:22.343Z,6.90
2018-11-02T19:31:51.346Z,7.80
2018-11-02T19:34:19.436Z,11.20
2018-11-02T19:36:47.323Z,6.23
2018-11-02T19:39:16.354Z,4.93
2018-11-02T19:41:44.358Z,4.00
2018-11-02T19:44:12.424Z,8.60
2018-11-02T19:46:40.373Z,5.03
2018-11-02T19:49:08.643Z,7.47
2018-11-02T19:51:36.505Z,4.83
2018-11-02T19:54:04.817Z,6.97
2018-11-02T19:56:33.317Z,6.20
2018-11-02T19:59:04.054Z,6.83
2018-11-02T20:01:32.682Z,5.20
2018-11-02T20:04:02.492Z,6.70
2018-11-02T20:06:30.532Z,8.47
2018-11-02T20:08:58.596Z,4.50
2018-11-02T20:11:26.593Z,5.27
2018-11-02T20:13:54.615Z,7.67
2018-11-02T20:16:22.638Z,6.30
2018-11-02T20:18:50.707Z,9.80
2018-11-02T20:21:18.670Z,9.23
2018-11-02T20:23:47.764Z,4.23
2018-11-02T20:26:15.843Z,9.23
2018-11-02T20:28:43.862Z,6.40
2018-11-02T20:31:11.877Z,5.97
2018-11-02T20:33:39.937Z,6.90
2018-11-02T20:36:07.948Z,7.30
2018-11-02T20:38:35.940Z,11.73
2018-11-02T20:41:03.978Z,3.93
2018-11-02T20:43:31.994Z,5.40
2018-11-02T20:46:00.106Z,6.10
2018-11-02T20:48:28.118Z,8.90
2018-11-02T20:50:56.144Z,4.37
2018-11-02T20:53:24.525Z,8.60
2018-11-02T20:55:52.714Z,8.10
2018-11-02T20:58:21.307Z,4.90
2018-11-02T21:00:49.888Z,7.33
2018-11-02T21:03:18.381Z,5.80
2018-11-02T21:05:47.004Z,10.20
2018-11-02T21:08:15.531Z,5.67
2018-11-02T21:10:44.070Z,5.20
2018-11-02T21:13:13.666Z,9.03
2018-11-02T21:15:42.296Z,6.20
2018-11-02T21:18:10.796Z,5.97
2018-11-02T21:20:39.631Z,6.83
2018-11-02T21:23:09.305Z,6.43
2018-11-02T21:25:37.758Z,4.50
2018-11-02T21:28:07.388Z,4.30
2018-11-02T21:30:36.062Z,6.53
2018-11-02T21:33:04.935Z,6.07
2018-11-02T21:35:33.516Z,6.70
2018-11-02T21:38:03.223Z,5.00
2018-11-02T21:40:32.699Z,5.33
2018-11-02T21:43:02.221Z,5.03
2018-11-02T21:45:31.252Z,5.47
2018-11-02T21:47:59.296Z,6.47
2018-11-02T21:50:27.317Z,5.60
2018-11-02T21:52:55.362Z,8.40
2018-11-02T21:55:23.362Z,6.13
2018-11-02T21:57:51.401Z,5.73
2018-11-02T22:00:20.664Z,6.80
2018-11-02T22:02:48.680Z,4.80
2018-11-02T22:05:16.672Z,7.03
2018-11-02T22:07:45.845Z,4.10
2018-11-02T22:10:14.097Z,6.40
2018-11-02T22:15:16.493Z,4.17
2018-11-02T22:17:45.592Z,5.90
2018-11-02T22:20:14.648Z,4.10
2018-11-02T22:22:42.660Z,5.00
2018-11-02T22:25:11.602Z,4.47
2018-11-02T22:27:39.610Z,4.37
2018-11-02T22:30:10.434Z,6.10
2018-11-02T22:32:38.474Z,8.03
2018-11-02T22:35:07.034Z,6.40
2018-11-02T22:37:35.592Z,9.40
2018-11-02T22:40:03.917Z,4.63
2018-11-02T22:42:32.568Z,5.97
2018-11-02T22:45:01.096Z,4.13
2018-11-02T22:47:29.420Z,7.37
2018-11-02T22:49:57.892Z,3.37
2018-11-02T22:52:25.936Z,4.87
2018-11-02T22:54:54.960Z,2.60
2018-11-02T22:57:23.010Z,4.80
2018-11-02T23:02:27.103Z,5.27
2018-11-02T23:04:55.623Z,5.40
2018-11-02T23:07:23.959Z,3.50
2018-11-02T23:09:52.580Z,4.90
2018-11-02T23:12:20.609Z,3.83
2018-11-02T23:14:49.631Z,6.93
2018-11-02T23:17:18.959Z,4.90
2018-11-02T23:19:46.962Z,4.73
2018-11-02T23:22:14.966Z,5.13
2018-11-02T23:24:42.984Z,6.30
2018-11-02T23:27:10.971Z,3.37
2018-11-02T23:29:39.921Z,11.70
2018-11-02T23:32:07.824Z,3.67
2018-11-02T23:34:35.808Z,4.60
2018-11-02T23:37:04.888Z,3.37
2018-11-02T23:39:32.913Z,10.80
2018-11-02T23:42:02.038Z,3.80
2018-11-02T23:44:30.026Z,3.70
2018-11-02T23:46:58.037Z,3.63
2018-11-02T23:49:26.081Z,4.90
2018-11-02T23:51:54.133Z,4.97
2018-11-02T23:54:22.404Z,3.97
2018-11-02T23:56:50.909Z,5.03
2018-11-02T23:59:19.171Z,5.03
